createdAt,value
2023-04-15T00:00:11.844Z,984.34
2023-04-15T00:01:10.895Z,984.30
2023-04-15T00:02:10.931Z,984.33
2023-04-15T00:03:10.985Z,984.29
2023-04-15T00:04:11.927Z,984.27
2023-04-15T00:05:10.838Z,984.28
2023-04-15T00:06:10.898Z,984.27
2023-04-15T00:07:10.802Z,984.26
2023-04-15T00:08:10.815Z,984.24
2023-04-15T00:09:11.379Z,984.22
2023-04-15T00:10:10.798Z,984.20
2023-04-15T00:11:10.826Z,984.23
2023-04-15T00:12:10.761Z,984.21
2023-04-15T00:13:12.287Z,984.24
2023-04-15T00:14:10.718Z,984.18
2023-04-15T00:15:10.734Z,984.24
2023-04-15T00:16:10.781Z,984.23
2023-04-15T00:17:10.691Z,984.22
2023-04-15T00:18:10.714Z,984.19
2023-04-15T00:19:10.682Z,984.13
2023-04-15T00:20:10.678Z,984.21
2023-04-15T00:21:10.666Z,984.19
2023-04-15T00:22:10.656Z,984.26
2023-04-15T00:23:10.625Z,984.26
2023-04-15T00:24:10.666Z,984.31
2023-04-15T00:25:10.611Z,984.29
2023-04-15T00:26:10.590Z,984.27
2023-04-15T00:27:10.615Z,984.33
2023-04-15T00:28:10.570Z,984.28
2023-04-15T00:29:10.539Z,984.29
2023-04-15T00:30:10.582Z,984.30
2023-04-15T00:31:10.588Z,984.28
2023-04-15T00:32:10.527Z,984.23
2023-04-15T00:33:10.527Z,984.22
2023-04-15T00:34:10.519Z,984.26
2023-04-15T00:35:10.525Z,984.22
2023-04-15T00:36:10.533Z,984.21
2023-04-15T00:37:10.450Z,984.25
2023-04-15T00:38:10.478Z,984.21
2023-04-15T00:39:10.510Z,984.25
2023-04-15T00:40:10.441Z,984.19
2023-04-15T00:41:10.430Z,984.21
2023-04-15T00:42:10.433Z,984.18
2023-04-15T00:43:11.380Z,984.19
2023-04-15T00:44:10.409Z,984.21
2023-04-15T00:45:10.376Z,984.21
2023-04-15T00:46:10.427Z,984.17
2023-04-15T00:47:10.357Z,984.16
2023-04-15T00:48:10.397Z,984.19
2023-04-15T00:49:10.414Z,984.23
2023-04-15T00:50:10.358Z,984.21
2023-04-15T00:51:10.338Z,984.23
2023-04-15T00:52:10.293Z,984.22
2023-04-15T00:53:10.339Z,984.23
2023-04-15T00:54:10.333Z,984.16
2023-04-15T00:55:10.297Z,984.19
2023-04-15T00:56:10.314Z,984.22
2023-04-15T00:57:10.254Z,984.17
2023-04-15T00:58:10.246Z,984.22
2023-04-15T00:59:10.274Z,984.19
2023-04-15T01:00:10.248Z,984.18
2023-04-15T01:01:10.260Z,984.14
2023-04-15T01:02:10.455Z,984.16
2023-04-15T01:03:10.330Z,984.15
2023-04-15T01:04:10.826Z,984.18
2023-04-15T01:05:10.190Z,984.17
2023-04-15T01:06:11.308Z,984.24
2023-04-15T01:07:10.129Z,984.20
2023-04-15T01:08:10.138Z,984.22
2023-04-15T01:09:10.105Z,984.15
2023-04-15T01:10:10.142Z,984.15
2023-04-15T01:11:10.830Z,984.11
2023-04-15T01:12:10.099Z,984.15
2023-04-15T01:13:10.094Z,984.13
2023-04-15T01:14:10.085Z,984.19
2023-04-15T01:15:10.049Z,984.18
2023-04-15T01:16:10.122Z,984.16
2023-04-15T01:17:10.050Z,984.16
2023-04-15T01:18:10.029Z,984.11
2023-04-15T01:19:10.008Z,984.13
2023-04-15T01:20:10.055Z,984.09
2023-04-15T01:21:09.995Z,984.07
2023-04-15T01:22:09.976Z,984.07
2023-04-15T01:23:09.983Z,984.16
2023-04-15T01:24:09.970Z,984.00
2023-04-15T01:25:09.973Z,984.11
2023-04-15T01:26:09.925Z,984.01
2023-04-15T01:27:09.910Z,984.05
2023-04-15T01:28:09.910Z,984.08
2023-04-15T01:29:09.889Z,984.05
2023-04-15T01:30:09.896Z,984.06
2023-04-15T01:31:09.895Z,984.05
2023-04-15T01:32:10.767Z,984.05
2023-04-15T01:33:09.842Z,984.05
2023-04-15T01:34:09.826Z,984.12
2023-04-15T01:35:09.838Z,984.09
2023-04-15T01:36:09.822Z,984.11
2023-04-15T01:37:09.885Z,984.07
2023-04-15T01:38:09.840Z,984.06
2023-04-15T01:39:09.787Z,984.07
2023-04-15T01:40:09.765Z,984.06
2023-04-15T01:41:09.746Z,984.05
2023-04-15T01:42:09.741Z,984.05
2023-04-15T01:43:09.745Z,984.06
2023-04-15T01:44:09.694Z,984.04
2023-04-15T01:45:09.706Z,984.06
2023-04-15T01:46:09.725Z,984.06
2023-04-15T01:47:09.694Z,984.06
2023-04-15T01:48:09.696Z,984.04
2023-04-15T01:49:09.675Z,984.03
2023-04-15T01:50:09.651Z,983.99
2023-04-15T01:51:09.667Z,984.02
2023-04-15T01:52:09.587Z,984.01
2023-04-15T01:53:09.606Z,984.02
2023-04-15T01:54:09.628Z,984.00
2023-04-15T01:55:09.578Z,984.00
2023-04-15T01:56:09.608Z,984.00
2023-04-15T01:57:09.576Z,983.96
2023-04-15T01:58:09.578Z,983.98
2023-04-15T01:59:10.201Z,983.98
2023-04-15T02:00:09.533Z,984.01
2023-04-15T02:01:09.556Z,984.04
2023-04-15T02:02:09.659Z,984.00
2023-04-15T02:03:09.541Z,983.98
2023-04-15T02:04:09.546Z,984.05
2023-04-15T02:05:09.513Z,984.01
2023-04-15T02:06:09.459Z,984.10
2023-04-15T02:07:09.492Z,984.05
2023-04-15T02:08:10.394Z,984.04
2023-04-15T02:09:09.561Z,983.99
2023-04-15T02:10:09.435Z,984.00
2023-04-15T02:11:09.446Z,984.06
2023-04-15T02:12:09.407Z,984.01
2023-04-15T02:13:09.383Z,984.01
2023-04-15T02:14:09.446Z,983.95
2023-04-15T02:15:09.383Z,984.08
2023-04-15T02:16:09.411Z,984.03
2023-04-15T02:17:09.336Z,984.03
2023-04-15T02:18:09.362Z,983.98
2023-04-15T02:19:09.537Z,983.98
2023-04-15T02:20:09.356Z,984.01
2023-04-15T02:21:09.303Z,983.98
2023-04-15T02:22:09.334Z,983.99
2023-04-15T02:23:09.338Z,983.96
2023-04-15T02:24:09.312Z,983.93
2023-04-15T02:25:09.276Z,983.99
2023-04-15T02:26:09.260Z,983.98
2023-04-15T02:27:09.288Z,983.93
2023-04-15T02:28:09.236Z,983.92
2023-04-15T02:29:09.200Z,983.93
2023-04-15T02:30:09.267Z,983.89
2023-04-15T02:31:09.254Z,983.90
2023-04-15T02:32:09.266Z,983.92
2023-04-15T02:33:09.157Z,983.91
2023-04-15T02:34:09.138Z,983.92
2023-04-15T02:35:09.204Z,983.94
2023-04-15T02:36:09.166Z,983.95
2023-04-15T02:37:09.157Z,983.90
2023-04-15T02:38:09.125Z,983.92
2023-04-15T02:39:09.107Z,983.97
2023-04-15T02:40:09.112Z,984.01
2023-04-15T02:41:09.080Z,983.91
2023-04-15T02:42:42.772Z,983.98
2023-04-15T02:43:09.075Z,983.90
2023-04-15T02:44:10.906Z,983.98
2023-04-15T02:45:09.015Z,983.93
2023-04-15T02:46:10.092Z,984.00
2023-04-15T02:47:09.054Z,983.99
2023-04-15T02:48:09.012Z,983.96
2023-04-15T02:49:09.025Z,983.99
2023-04-15T02:50:09.545Z,983.97
2023-04-15T02:51:08.969Z,983.93
2023-04-15T02:52:08.986Z,983.94
2023-04-15T02:53:08.942Z,983.96
2023-04-15T02:54:08.950Z,983.94
2023-04-15T02:55:08.905Z,983.92
2023-04-15T02:56:08.914Z,983.89
2023-04-15T02:57:08.916Z,983.93
2023-04-15T02:58:08.947Z,983.88
2023-04-15T02:59:08.879Z,983.98
2023-04-15T03:00:08.859Z,983.99
2023-04-15T03:01:08.870Z,983.93
2023-04-15T03:02:08.911Z,984.04
2023-04-15T03:03:09.084Z,984.05
2023-04-15T03:04:08.958Z,984.00
2023-04-15T03:05:08.824Z,984.09
2023-04-15T03:06:09.786Z,984.04
2023-04-15T03:07:08.783Z,984.08
2023-04-15T03:08:08.804Z,984.02
2023-04-15T03:09:08.795Z,984.02
2023-04-15T03:10:08.793Z,984.05
2023-04-15T03:11:08.754Z,984.02
2023-04-15T03:12:08.737Z,984.00
2023-04-15T03:13:08.713Z,984.04
2023-04-15T03:14:08.696Z,984.00
2023-04-15T03:15:08.739Z,984.04
2023-04-15T03:16:08.679Z,984.02
2023-04-15T03:17:08.678Z,983.99
2023-04-15T03:18:08.666Z,983.98
2023-04-15T03:19:08.722Z,983.93
2023-04-15T03:20:08.713Z,983.93
2023-04-15T03:21:08.637Z,983.89
2023-04-15T03:22:08.614Z,983.93
2023-04-15T03:23:08.570Z,983.91
2023-04-15T03:24:08.580Z,983.90
2023-04-15T03:25:09.593Z,983.96
2023-04-15T03:26:08.585Z,983.93
2023-04-15T03:27:08.563Z,983.96
2023-04-15T03:28:08.575Z,983.98
2023-04-15T03:29:08.522Z,983.95
2023-04-15T03:30:08.519Z,983.92
2023-04-15T03:31:08.566Z,983.99
2023-04-15T03:32:08.585Z,983.95
2023-04-15T03:33:08.491Z,983.94
2023-04-15T03:34:09.392Z,983.95
2023-04-15T03:35:08.498Z,983.95
2023-04-15T03:36:08.459Z,983.94
2023-04-15T03:37:08.438Z,983.86
2023-04-15T03:38:08.419Z,983.94
2023-04-15T03:39:08.429Z,983.93
2023-04-15T03:40:08.387Z,983.96
2023-04-15T03:41:08.366Z,983.96
2023-04-15T03:42:09.496Z,984.02
2023-04-15T03:43:08.352Z,983.99
2023-04-15T03:44:08.376Z,984.01
2023-04-15T03:45:08.333Z,984.00
2023-04-15T03:46:08.391Z,984.01
2023-04-15T03:47:08.331Z,983.98
2023-04-15T03:48:17.123Z,983.91
2023-04-15T03:49:10.302Z,983.94
2023-04-15T03:50:08.321Z,983.91
2023-04-15T03:51:08.294Z,983.91
2023-04-15T03:52:08.302Z,984.02
2023-04-15T03:53:08.311Z,984.04
2023-04-15T03:54:08.247Z,984.11
2023-04-15T03:55:08.268Z,984.07
2023-04-15T03:56:08.227Z,984.05
2023-04-15T03:57:08.234Z,984.06
2023-04-15T03:58:08.878Z,984.10
2023-04-15T03:59:08.231Z,984.12
2023-04-15T04:00:08.204Z,984.17
2023-04-15T04:01:08.179Z,984.14
2023-04-15T04:02:08.213Z,984.14
2023-04-15T04:03:08.526Z,984.18
2023-04-15T04:04:08.204Z,984.15
2023-04-15T04:05:08.139Z,984.17
2023-04-15T04:06:08.095Z,984.14
2023-04-15T04:07:08.118Z,984.20
2023-04-15T04:08:08.099Z,984.09
2023-04-15T04:09:08.082Z,984.13
2023-04-15T04:10:08.100Z,984.12
2023-04-15T04:11:08.199Z,984.11
2023-04-15T04:12:08.161Z,984.15
2023-04-15T04:13:08.691Z,984.14
2023-04-15T04:14:08.079Z,984.16
2023-04-15T04:15:08.016Z,984.09
2023-04-15T04:16:08.180Z,984.12
2023-04-15T04:17:08.114Z,984.04
2023-04-15T04:18:08.000Z,983.97
2023-04-15T04:19:07.979Z,984.02
2023-04-15T04:20:07.934Z,984.01
2023-04-15T04:21:07.985Z,983.97
2023-04-15T04:22:07.922Z,983.99
2023-04-15T04:23:07.921Z,984.03
2023-04-15T04:30:22.365Z,984.05
2023-04-15T04:31:23.656Z,984.14
2023-04-15T04:32:23.542Z,984.06
2023-04-15T04:33:23.595Z,984.05
2023-04-15T04:34:23.536Z,984.00
2023-04-15T04:35:23.515Z,984.07
2023-04-15T04:36:23.474Z,984.05
2023-04-15T04:37:23.594Z,984.08
2023-04-15T04:38:23.404Z,984.06
2023-04-15T04:39:23.449Z,984.03
2023-04-15T04:40:23.460Z,984.04
2023-04-15T04:41:23.380Z,984.09
2023-04-15T04:42:24.162Z,984.01
2023-04-15T04:43:23.295Z,984.11
2023-04-15T04:44:23.409Z,984.09
2023-04-15T04:45:23.349Z,984.04
2023-04-15T04:46:23.525Z,984.06
2023-04-15T04:47:23.300Z,984.04
2023-04-15T04:48:23.370Z,984.08
2023-04-15T04:49:23.365Z,984.10
2023-04-15T04:50:23.348Z,984.15
2023-04-15T04:51:23.253Z,984.11
2023-04-15T04:52:23.277Z,984.10
2023-04-15T04:53:23.249Z,984.11
2023-04-15T04:54:23.257Z,984.16
2023-04-15T04:55:23.241Z,984.15
2023-04-15T04:56:23.340Z,984.15
2023-04-15T04:57:23.305Z,984.14
2023-04-15T04:58:23.159Z,984.16
2023-04-15T04:59:23.150Z,984.17
2023-04-15T05:00:23.193Z,984.21
2023-04-15T05:01:23.285Z,984.19
2023-04-15T05:02:23.184Z,984.19
2023-04-15T05:03:23.270Z,984.18
2023-04-15T05:04:23.086Z,984.15
2023-04-15T05:05:23.736Z,984.11
2023-04-15T05:06:23.147Z,984.21
2023-04-15T05:07:23.168Z,984.17
2023-04-15T05:08:23.171Z,984.20
2023-04-15T05:09:23.143Z,984.18
2023-04-15T05:10:23.009Z,984.17
2023-04-15T05:11:23.110Z,984.21
2023-04-15T05:12:23.007Z,984.19
2023-04-15T05:13:22.991Z,984.13
2023-04-15T05:14:23.463Z,984.14
2023-04-15T05:15:24.230Z,984.11
2023-04-15T05:16:23.090Z,984.16
2023-04-15T05:17:23.033Z,984.18
2023-04-15T05:18:22.954Z,984.17
2023-04-15T05:19:23.063Z,984.22
2023-04-15T05:20:22.931Z,984.24
2023-04-15T05:21:22.953Z,984.23
2023-04-15T05:22:22.902Z,984.21
2023-04-15T05:23:22.942Z,984.28
2023-04-15T05:24:22.894Z,984.32
2023-04-15T05:25:23.068Z,984.26
2023-04-15T05:26:22.858Z,984.23
2023-04-15T05:27:22.837Z,984.27
2023-04-15T05:28:22.889Z,984.31
2023-04-15T05:29:22.795Z,984.28
2023-04-15T05:30:22.820Z,984.30
2023-04-15T05:31:22.784Z,984.29
2023-04-15T05:32:22.884Z,984.30
2023-04-15T05:33:22.805Z,984.31
2023-04-15T05:34:22.783Z,984.37
2023-04-15T05:35:22.894Z,984.34
2023-04-15T05:36:22.736Z,984.30
2023-04-15T05:37:22.737Z,984.34
2023-04-15T05:38:22.728Z,984.38
2023-04-15T05:39:22.744Z,984.32
2023-04-15T05:40:22.738Z,984.37
2023-04-15T05:41:22.840Z,984.35
2023-04-15T05:42:22.703Z,984.37
2023-04-15T05:43:22.639Z,984.37
2023-04-15T05:44:22.656Z,984.35
2023-04-15T05:45:22.755Z,984.40
2023-04-15T05:46:22.629Z,984.40
2023-04-15T05:47:22.652Z,984.36
2023-04-15T05:48:22.595Z,984.37
2023-04-15T05:49:23.203Z,984.43
2023-04-15T05:50:22.573Z,984.45
2023-04-15T05:51:22.676Z,984.44
2023-04-15T05:52:22.540Z,984.39
2023-04-15T05:53:22.532Z,984.36
2023-04-15T05:54:22.520Z,984.39
2023-04-15T05:55:22.543Z,984.42
2023-04-15T05:56:22.739Z,984.36
2023-04-15T05:57:22.480Z,984.37
2023-04-15T05:58:22.637Z,984.37
2023-04-15T05:59:48.961Z,984.34
2023-04-15T06:00:34.457Z,984.37
2023-04-15T06:03:22.051Z,984.34
2023-04-15T06:04:14.440Z,984.42
2023-04-15T06:08:20.773Z,984.45
2023-04-15T06:09:25.977Z,984.37
2023-04-15T06:10:23.032Z,984.42
2023-04-15T06:11:21.740Z,984.41
2023-04-15T06:12:21.776Z,984.36
2023-04-15T06:13:21.814Z,984.39
2023-04-15T06:14:21.449Z,984.43
2023-04-15T06:15:23.104Z,984.45
2023-04-15T06:16:22.077Z,984.46
2023-04-15T06:17:26.328Z,984.44
2023-04-15T06:19:55.216Z,984.43
2023-04-15T06:19:58.640Z,984.36
2023-04-15T06:21:01.455Z,984.40
2023-04-15T06:21:58.264Z,984.43
2023-04-15T06:23:21.218Z,984.39
2023-04-15T06:23:59.526Z,984.42
2023-04-15T06:25:00.255Z,984.45
2023-04-15T06:26:01.410Z,984.45
2023-04-15T06:27:00.520Z,984.46
2023-04-15T06:27:57.670Z,984.53
2023-04-15T06:28:57.585Z,984.49
2023-04-15T06:29:57.439Z,984.49
2023-04-15T06:30:57.434Z,984.56
2023-04-15T06:31:58.179Z,984.45
2023-04-15T06:32:57.547Z,984.45
2023-04-15T06:33:58.411Z,984.49
2023-04-15T06:34:57.426Z,984.48
2023-04-15T06:35:57.463Z,984.55
2023-04-15T06:36:57.272Z,984.49
2023-04-15T06:38:00.563Z,984.48
2023-04-15T06:39:01.063Z,984.55
2023-04-15T06:42:39.266Z,984.52
2023-04-15T06:42:55.445Z,984.59
2023-04-15T06:43:49.516Z,984.63
2023-04-15T06:44:53.563Z,984.56
2023-04-15T06:45:53.255Z,984.68
2023-04-15T06:46:55.396Z,984.65
2023-04-15T06:47:43.862Z,984.61
2023-04-15T06:48:44.006Z,984.65
2023-04-15T06:49:43.570Z,984.60
2023-04-15T06:50:43.797Z,984.61
2023-04-15T06:51:44.441Z,984.60
2023-04-15T06:52:43.794Z,984.63
2023-04-15T06:53:44.266Z,984.65
2023-04-15T06:54:44.384Z,984.65
2023-04-15T06:55:47.199Z,984.61
2023-04-15T06:56:45.177Z,984.61
2023-04-15T06:57:44.204Z,984.60
2023-04-15T06:58:43.698Z,984.60
2023-04-15T06:59:46.652Z,984.61
2023-04-15T07:00:53.717Z,984.61
2023-04-15T07:01:43.259Z,984.59
2023-04-15T08:02:57.951Z,984.63
2023-04-15T08:15:27.210Z,984.50
2023-04-15T08:15:43.255Z,984.56
2023-04-15T08:18:17.628Z,984.54
2023-04-15T08:19:51.113Z,984.52
2023-04-15T08:20:31.178Z,984.52
2023-04-15T08:21:20.245Z,984.49
2023-04-15T08:22:28.754Z,984.55
2023-04-15T08:23:19.408Z,984.56
2023-04-15T08:24:42.705Z,984.55
2023-04-15T08:25:20.765Z,984.56
2023-04-15T08:26:17.641Z,984.51
2023-04-15T08:27:28.591Z,984.52
2023-04-15T08:28:22.195Z,984.55
2023-04-15T08:29:23.994Z,984.55
2023-04-15T08:31:48.991Z,984.55
2023-04-15T08:32:06.671Z,984.50
2023-04-15T08:33:06.564Z,984.42
2023-04-15T08:35:17.678Z,984.46
2023-04-15T08:35:20.598Z,984.49
2023-04-15T08:36:31.992Z,984.49
2023-04-15T08:37:20.078Z,984.46
2023-04-15T08:38:19.716Z,984.58
2023-04-15T08:39:20.228Z,984.48
2023-04-15T08:40:20.599Z,984.47
2023-04-15T08:41:26.268Z,984.53
2023-04-15T08:42:26.436Z,984.53
2023-04-15T08:43:27.140Z,984.48
2023-04-15T08:44:19.651Z,984.55
2023-04-15T08:45:19.618Z,984.57
2023-04-15T08:46:19.412Z,984.62
2023-04-15T08:47:19.363Z,984.61
2023-04-15T08:48:19.353Z,984.59
2023-04-15T08:49:19.376Z,984.62
2023-04-15T08:50:19.524Z,984.61
2023-04-15T08:51:19.405Z,984.59
2023-04-15T08:52:19.438Z,984.61
2023-04-15T08:53:19.396Z,984.67
2023-04-15T08:54:19.328Z,984.65
2023-04-15T08:55:19.414Z,984.64
2023-04-15T08:56:19.383Z,984.59
2023-04-15T08:57:19.241Z,984.63
2023-04-15T09:17:17.964Z,984.72
2023-04-15T09:29:28.291Z,984.77
2023-04-15T09:59:46.285Z,985.03
2023-04-15T09:59:47.980Z,985.11
2023-04-15T10:06:37.724Z,985.15
2023-04-15T10:07:37.788Z,985.08
2023-04-15T10:08:37.831Z,985.13
2023-04-15T10:09:38.371Z,985.10
2023-04-15T10:10:44.387Z,985.13
2023-04-15T10:11:37.847Z,985.16
2023-04-15T10:12:38.383Z,985.16
2023-04-15T10:13:38.124Z,985.12
2023-04-15T10:14:38.895Z,985.13
2023-04-15T10:15:37.738Z,985.13
2023-04-15T10:17:59.692Z,985.14
2023-04-15T10:19:27.015Z,985.13
2023-04-15T10:19:30.884Z,985.11
2023-04-15T10:21:50.988Z,985.18
2023-04-15T10:21:53.460Z,985.11
2023-04-15T10:23:09.418Z,985.16
2023-04-15T10:23:53.476Z,985.15
